עמוד ראשי
METAR-TAF:

METAR-TAF

שדות תעופה :

נמל התעופה הבינלאומי מיניסטרו פיסטריני

Ezeiza, ארגנטינה

קו רוחב: 34-49S, קו אורך: 058-32W, גובה: 20מטר

תצפית מזג אוויר נוכחית

הדו"ח נערך לפני 1 שעות ו 22דקות, בשעה 02:00 UTC
רוח 3קשר מכיוון דרום/דרום-מערב
טמפרטורת 8 צלסיוס
לחות 93%
לחץ 1019 hPa
ראות 10 קילומטר או יותר
ללא עננים שבסיסם נמוך מ 5000 רגל או קומולונימבוס

METAR: SAEZ 200200Z 21003KT CAVOK 08/07 Q1019 NOSIG

זמן: 00:22 (03:22 UTC)

תחזית

הדו"ח נערך לפני 4 שעות ו 22דקות, בשעה 23:00 UTC
תחזית בתוקף מ 20 ב 00 UTC עד 20 ב 24 UTC
רוח 5קשר מכיוון דרום/דרום-מערב
ראות 10 קילומטר או יותר
ללא עננים שבסיסם נמוך מ 5000 רגל או קומולונימבוס
הסתברות 40%
20 ב 06 UTC עד 20 ב 10 UTC
רוח 3קשר עם כיוונים משתנים
ראות: 5000מטר
אד
יעשה מ
20 ב 12 UTC עד 20 ב 14 UTC
רוח 10קשר מכיוון מזרח/דרום-מזרח
זמנית מ -
20 ב 17 UTC עד 20 ב 21 UTC
רוח 15קשר מכיוון מזרח עם משבים עד 25קשר

TAF: SAEZ 192300Z 2000/2024 20005KT CAVOK TX16/2018Z TN06/2009Z PROB40 2006/2010 VRB03KT 5000 BR NSC BECMG 2012/2014 12010KT TEMPO 2017/2021 09015G25KT

תצפיות ותחזיות מזג אוויר לגבי יותר מ- 4,000 שדות תעופה ברחבי העולם. דוחות METAR ו- TAF.

התחנות הזמינות מסומנות בנקודות צהובות ואדומות על גבי המפה.

העבר את העכבר לנקודה הצבעונית על מנת לראות את שם התחנה.

לאחר מכן, לחץ כדי לראות את תוכן ואת תחזיות מזג האוויר.

כדי לשנות את המפה: לחץ על הכפתורים הירוקים עם הפלוס השחור כדי להתקרב; על הכפתור הירוק עם המקף כדי להתרחק; או בחיצים הירוקים למפות סמוכות.


METAR-TAF: